Time;durP1;ratioP1;P1;durP2;ratioP2;P2;SDS_P1;SDS_P2;PMS_P1;PMS_P2;Temp;Humidity;BMP_temperature;BMP_pressure;BME280_temperature;BME280_humidity;BME280_pressure;Samples;Min_cycle;Max_cycle;Signal;HPM_P1;HPM_P2
2022/09/20 00:01:21;;;;;;;3.00;1.45;;;21.30;99.90;;;;;;5029842;28;20114;-72
2022/09/20 00:03:51;;;;;;;2.40;1.73;;;21.30;99.90;;;;;;5047434;28;20045;-72
2022/09/20 00:06:26;;;;;;;3.05;1.83;;;21.40;99.90;;;;;;4996710;28;20135;-73
2022/09/20 00:08:55;;;;;;;2.72;1.40;;;21.40;99.90;;;;;;4996783;28;20049;-73
2022/09/20 00:11:25;;;;;;;3.60;1.77;;;21.40;99.90;;;;;;5033780;28;20037;-72
2022/09/20 00:13:55;;;;;;;2.50;1.58;;;21.50;99.90;;;;;;5033783;28;20174;-73
2022/09/20 00:16:32;;;;;;;3.80;1.65;;;21.50;99.90;;;;;;5033549;28;20040;-74
2022/09/20 00:19:02;;;;;;;2.50;1.25;;;21.50;99.90;;;;;;5051500;28;20537;-71
2022/09/20 00:21:32;;;;;;;2.72;1.40;;;21.50;99.90;;;;;;5033912;28;20045;-71
2022/09/20 00:24:00;;;;;;;2.17;1.20;;;21.50;99.90;;;;;;5017067;28;20519;-73
2022/09/20 00:26:28;;;;;;;2.78;1.50;;;21.50;99.90;;;;;;5033529;28;20045;-72
2022/09/20 00:28:57;;;;;;;2.78;1.67;;;21.40;99.90;;;;;;5051510;28;20060;-76
2022/09/20 00:31:25;;;;;;;2.58;1.25;;;21.40;99.90;;;;;;5033640;28;20394;-73
2022/09/20 00:36:44;;;;;;;3.38;1.25;;;21.40;99.90;;;;;;5016591;28;20178;-72
2022/09/20 00:39:14;;;;;;;3.58;1.55;;;21.40;99.90;;;;;;5016793;28;20140;-73
2022/09/20 00:41:42;;;;;;;1.98;1.17;;;21.40;99.90;;;;;;5032928;28;20056;-73
2022/09/20 00:44:42;;;;;;;2.63;1.45;;;21.40;99.90;;;;;;5051063;28;20047;-75
2022/09/20 00:47:41;;;;;;;2.70;1.50;;;21.40;99.90;;;;;;5016889;28;20053;-72
2022/09/20 00:50:37;;;;;;;2.35;1.13;;;21.40;99.90;;;;;;5047200;28;20048;-71
2022/09/20 00:53:13;;;;;;;2.05;1.20;;;21.50;99.90;;;;;;5033271;28;20075;-71
2022/09/20 00:55:46;;;;;;;4.32;1.50;;;21.40;99.90;;;;;;5033285;28;20059;-72
2022/09/20 00:58:15;;;;;;;5.88;2.90;;;21.40;99.90;;;;;;5016525;28;20100;-71
2022/09/20 01:00:45;;;;;;;21.30;3.40;;;21.40;99.90;;;;;;5015747;28;20140;-72
2022/09/20 01:03:16;;;;;;;4.28;2.72;;;21.30;99.90;;;;;;5050797;28;20136;-71
2022/09/20 01:05:44;;;;;;;6.95;3.17;;;21.20;99.90;;;;;;5050885;28;20049;-71
2022/09/20 01:08:12;;;;;;;6.97;3.22;;;21.20;99.90;;;;;;5050842;28;20188;-73
2022/09/20 01:10:40;;;;;;;8.77;3.75;;;21.10;99.90;;;;;;5032338;28;20059;-73
2022/09/20 01:13:08;;;;;;;6.18;2.75;;;21.10;99.90;;;;;;5032558;28;20057;-74
2022/09/20 01:15:38;;;;;;;5.78;2.88;;;21.10;99.90;;;;;;5050357;28;20052;-74
2022/09/20 01:18:08;;;;;;;8.52;3.92;;;21.00;99.90;;;;;;5016245;28;20041;-71
2022/09/20 01:20:39;;;;;;;5.90;3.55;;;21.00;99.90;;;;;;5031913;28;20131;-72
2022/09/20 01:23:31;;;;;;;8.48;3.53;;;21.00;99.90;;;;;;5050092;28;20044;-73
2022/09/20 01:26:52;;;;;;;6.10;3.20;;;20.90;99.90;;;;;;5032865;28;20403;-72
2022/09/20 01:29:53;;;;;;;5.78;3.10;;;21.00;99.90;;;;;;4972482;28;20069;-74
2022/09/20 01:32:27;;;;;;;6.38;2.88;;;20.90;99.90;;;;;;5015956;28;20190;-72
2022/09/20 01:34:58;;;;;;;5.38;2.97;;;20.90;99.90;;;;;;5050118;28;20706;-71
2022/09/20 01:37:38;;;;;;;4.40;2.45;;;20.90;99.90;;;;;;5015764;28;20040;-72
2022/09/20 01:40:45;;;;;;;6.97;2.88;;;20.90;99.90;;;;;;5050043;28;20347;-72
2022/09/20 01:43:32;;;;;;;5.32;2.50;;;20.90;99.90;;;;;;4998428;28;20071;-71
2022/09/20 01:46:23;;;;;;;4.85;2.40;;;20.80;99.90;;;;;;5032056;28;20111;-73
2022/09/20 01:48:54;;;;;;;4.50;2.38;;;20.90;99.90;;;;;;5015373;28;20052;-73
2022/09/20 01:51:50;;;;;;;3.95;1.88;;;20.80;99.90;;;;;;5015392;28;20126;-75
2022/09/20 01:54:25;;;;;;;3.45;2.00;;;20.80;99.90;;;;;;5050050;28;20183;-74
2022/09/20 01:57:14;;;;;;;3.70;2.53;;;20.90;99.90;;;;;;5049854;28;20180;-72
2022/09/20 01:59:56;;;;;;;6.88;2.17;;;20.80;99.90;;;;;;5032232;28;20067;-72
2022/09/20 02:02:41;;;;;;;3.25;1.92;;;20.80;99.90;;;;;;5031584;28;20410;-72
2022/09/20 02:05:17;;;;;;;3.90;1.85;;;20.90;99.90;;;;;;5031791;28;20055;-74
2022/09/20 02:07:48;;;;;;;3.22;1.83;;;20.90;99.90;;;;;;5031815;28;20123;-72
2022/09/20 02:10:40;;;;;;;3.38;2.13;;;20.90;99.90;;;;;;5031410;28;20056;-72
2022/09/20 02:13:18;;;;;;;3.83;2.08;;;20.90;99.90;;;;;;5031631;28;20069;-72
2022/09/20 02:16:09;;;;;;;3.35;2.10;;;20.90;99.90;;;;;;5049731;28;20072;-71
2022/09/20 02:19:04;;;;;;;4.43;2.60;;;20.90;99.90;;;;;;5014892;28;20083;-73
2022/09/20 02:21:45;;;;;;;3.70;2.28;;;21.00;99.90;;;;;;5015106;28;20053;-73
2022/09/20 02:24:52;;;;;;;6.70;2.08;;;21.00;99.90;;;;;;5030904;28;20091;-71
2022/09/20 02:27:28;;;;;;;4.57;2.25;;;21.00;99.90;;;;;;5031247;28;20049;-74
2022/09/20 02:30:20;;;;;;;2.78;1.63;;;21.00;99.90;;;;;;5030327;28;20475;-71
2022/09/20 02:33:05;;;;;;;3.97;2.05;;;21.00;99.90;;;;;;5030303;28;20053;-72
2022/09/20 02:35:59;;;;;;;4.65;2.40;;;21.00;99.90;;;;;;5048905;28;20041;-72
2022/09/20 02:38:51;;;;;;;11.30;1.77;;;21.00;99.90;;;;;;5048646;28;20052;-72
2022/09/20 02:41:27;;;;;;;3.85;2.30;;;21.00;99.90;;;;;;5031305;28;20045;-72
2022/09/20 02:44:18;;;;;;;3.60;2.28;;;20.90;99.90;;;;;;5030999;28;20494;-72
2022/09/20 02:46:58;;;;;;;2.90;1.48;;;20.80;99.90;;;;;;5014404;28;20044;-72
2022/09/20 02:49:40;;;;;;;4.55;1.92;;;20.90;99.90;;;;;;5014945;28;20056;-72
2022/09/20 02:52:34;;;;;;;2.70;1.95;;;20.80;99.90;;;;;;5030717;28;20171;-71
2022/09/20 02:55:19;;;;;;;4.60;1.83;;;20.80;99.90;;;;;;5014391;28;20044;-72
2022/09/20 02:57:53;;;;;;;2.88;1.60;;;20.80;99.90;;;;;;5014500;28;20136;-72
2022/09/20 03:00:31;;;;;;;2.75;1.48;;;20.80;99.90;;;;;;5014666;28;20130;-72
2022/09/20 03:03:07;;;;;;;2.92;1.70;;;20.80;99.90;;;;;;5030964;28;20048;-72
2022/09/20 03:06:09;;;;;;;4.57;2.13;;;20.80;99.90;;;;;;5030452;28;20047;-72
2022/09/20 03:08:57;;;;;;;5.40;2.67;;;20.80;99.90;;;;;;5048270;28;20478;-72
2022/09/20 03:11:48;;;;;;;3.05;2.10;;;20.80;99.90;;;;;;5048386;28;20158;-72
2022/09/20 03:14:27;;;;;;;4.90;1.70;;;20.70;99.90;;;;;;5013794;28;20569;-72
2022/09/20 03:17:10;;;;;;;6.25;2.20;;;20.70;99.90;;;;;;5048070;28;20140;-73
2022/09/20 03:19:45;;;;;;;3.38;1.73;;;20.70;99.90;;;;;;5030457;28;20067;-72
2022/09/20 03:22:34;;;;;;;4.07;2.00;;;20.70;99.90;;;;;;5013896;28;20474;-71
2022/09/20 03:25:16;;;;;;;4.45;1.40;;;20.70;99.90;;;;;;5048162;28;20049;-72
2022/09/20 03:28:02;;;;;;;3.13;1.70;;;20.70;99.90;;;;;;5030224;28;20064;-73
2022/09/20 03:30:45;;;;;;;5.07;1.67;;;20.70;99.90;;;;;;5013234;28;20199;-72
2022/09/20 03:33:37;;;;;;;4.40;1.73;;;20.70;99.90;;;;;;5029970;28;20055;-72
2022/09/20 03:36:37;;;;;;;3.60;1.55;;;20.70;99.90;;;;;;5048530;28;20124;-72
2022/09/20 03:39:41;;;;;;;2.53;1.42;;;20.70;99.90;;;;;;5029743;28;20446;-73
2022/09/20 03:42:28;;;;;;;4.30;2.15;;;20.80;99.90;;;;;;4997202;28;20045;-73
2022/09/20 03:45:07;;;;;;;5.15;1.88;;;20.80;99.90;;;;;;5029843;28;20055;-72
2022/09/20 03:47:41;;;;;;;2.55;1.63;;;20.80;99.90;;;;;;5029883;28;20067;-75
2022/09/20 03:50:11;;;;;;;4.60;1.67;;;20.80;99.90;;;;;;5013941;28;20045;-74
2022/09/20 03:53:16;;;;;;;4.93;1.52;;;20.80;99.90;;;;;;5047676;28;20049;-73
2022/09/20 03:56:34;;;;;;;3.13;1.67;;;20.80;99.90;;;;;;5013513;28;20163;-72
2022/09/20 03:59:07;;;;;;;5.22;1.73;;;20.80;99.90;;;;;;5021876;28;20103;-72
2022/09/20 04:01:47;;;;;;;3.50;1.92;;;20.70;99.90;;;;;;4997339;28;20057;-72
2022/09/20 04:04:45;;;;;;;4.03;1.90;;;20.70;99.90;;;;;;5047542;28;20174;-73
2022/09/20 04:07:43;;;;;;;3.75;2.08;;;20.70;99.90;;;;;;5029211;28;20091;-72
2022/09/20 04:10:17;;;;;;;2.88;1.73;;;20.70;99.90;;;;;;5029623;28;20452;-74
2022/09/20 04:13:11;;;;;;;2.75;1.52;;;20.70;99.90;;;;;;5013006;28;20086;-72
2022/09/20 04:16:12;;;;;;;4.03;2.10;;;20.70;99.90;;;;;;5047768;28;20055;-72
2022/09/20 04:19:06;;;;;;;3.25;2.22;;;20.70;99.90;;;;;;5013154;28;20045;-72
2022/09/20 04:21:57;;;;;;;2.90;1.48;;;20.70;99.90;;;;;;5047604;28;20060;-76
2022/09/20 04:24:47;;;;;;;3.00;1.40;;;20.70;99.90;;;;;;5013403;28;20470;-81
2022/09/20 04:27:24;;;;;;;2.35;1.27;;;20.60;99.90;;;;;;5029460;28;20047;-72
2022/09/20 04:30:04;;;;;;;3.10;1.50;;;20.60;99.90;;;;;;5029763;28;20049;-72
2022/09/20 04:32:53;;;;;;;3.30;1.65;;;20.70;99.90;;;;;;4996812;28;20060;-72
2022/09/20 04:38:26;;;;;;;2.38;1.38;;;20.60;99.90;;;;;;5047184;28;20045;-78
2022/09/20 04:41:33;;;;;;;1.90;1.30;;;20.70;99.90;;;;;;4996870;28;20144;-73
2022/09/20 04:44:03;;;;;;;2.45;1.60;;;20.70;99.90;;;;;;5005065;28;20554;-74
2022/09/20 04:46:54;;;;;;;5.13;1.52;;;20.70;99.90;;;;;;5029617;28;20045;-74
2022/09/20 04:49:43;;;;;;;5.05;1.88;;;20.70;99.90;;;;;;5013033;28;20442;-73
2022/09/20 04:52:39;;;;;;;3.60;1.85;;;20.70;99.90;;;;;;5029206;28;20037;-73
2022/09/20 04:55:44;;;;;;;4.72;2.10;;;20.80;99.90;;;;;;5029573;28;20123;-72
2022/09/20 04:58:36;;;;;;;4.88;2.47;;;20.90;99.90;;;;;;5032569;28;20052;-74
2022/09/20 05:01:33;;;;;;;3.15;1.77;;;21.10;99.90;;;;;;5032659;28;20041;-72
2022/09/20 05:04:24;;;;;;;3.45;1.75;;;21.20;99.90;;;;;;5050964;28;20057;-72
2022/09/20 05:07:27;;;;;;;2.58;1.55;;;21.30;99.90;;;;;;5032581;28;20049;-72
2022/09/20 05:10:20;;;;;;;4.63;1.85;;;21.50;99.90;;;;;;5032600;28;20178;-72
2022/09/20 05:13:10;;;;;;;5.78;1.80;;;21.60;99.90;;;;;;5050943;28;20129;-72
2022/09/20 05:16:17;;;;;;;5.55;2.00;;;21.80;99.90;;;;;;5033321;28;20170;-72
2022/09/20 05:19:05;;;;;;;3.60;2.00;;;21.90;99.90;;;;;;4988444;28;20042;-72
2022/09/20 05:21:42;;;;;;;4.40;2.97;;;22.10;99.90;;;;;;4956259;28;20076;-71
2022/09/20 05:24:27;;;;;;;4.60;2.72;;;22.20;99.90;;;;;;5003683;28;20041;-72
2022/09/20 05:27:05;;;;;;;5.00;2.30;;;22.40;99.90;;;;;;5031912;28;20053;-74
2022/09/20 05:30:01;;;;;;;6.45;2.35;;;22.60;99.90;;;;;;5032517;28;20045;-71
2022/09/20 05:32:54;;;;;;;3.17;2.00;;;22.70;99.90;;;;;;5015991;28;20442;-72
2022/09/20 05:36:00;;;;;;;3.45;2.10;;;22.80;99.90;;;;;;5032299;28;20053;-72
2022/09/20 05:38:48;;;;;;;6.20;2.50;;;23.00;99.90;;;;;;5049765;28;20041;-71
2022/09/20 05:41:32;;;;;;;7.00;2.58;;;23.10;99.90;;;;;;5015391;28;20079;-72
2022/09/20 05:44:29;;;;;;;4.95;2.70;;;23.30;99.90;;;;;;5050047;28;20102;-72
2022/09/20 05:47:23;;;;;;;7.22;2.60;;;23.50;99.90;;;;;;5050030;28;20045;-71
2022/09/20 05:49:57;;;;;;;3.70;2.55;;;23.60;99.90;;;;;;5015585;28;20398;-72
2022/09/20 05:52:58;;;;;;;4.22;2.53;;;23.70;99.90;;;;;;5050003;28;20126;-72
2022/09/20 05:55:48;;;;;;;4.63;2.33;;;23.80;99.90;;;;;;5032200;28;20147;-72
2022/09/20 05:58:43;;;;;;;6.53;2.92;;;23.90;99.90;;;;;;5015396;28;20060;-72
2022/09/20 06:01:17;;;;;;;6.25;2.55;;;24.10;99.90;;;;;;5031405;28;20049;-74
2022/09/20 06:03:54;;;;;;;21.95;3.25;;;24.10;99.90;;;;;;5031793;28;20114;-72
2022/09/20 06:06:46;;;;;;;5.45;2.28;;;24.30;99.90;;;;;;5031486;28;20064;-72
2022/09/20 06:09:16;;;;;;;5.82;2.45;;;24.30;99.90;;;;;;5031320;28;20081;-73
2022/09/20 06:12:05;;;;;;;6.45;1.92;;;24.50;99.90;;;;;;4999039;28;20063;-72
2022/09/20 06:15:00;;;;;;;6.57;2.50;;;24.60;99.90;;;;;;5049388;28;20167;-73
2022/09/20 06:17:42;;;;;;;3.95;1.98;;;24.80;99.90;;;;;;5014569;28;20048;-72
2022/09/20 06:20:31;;;;;;;3.35;1.88;;;24.90;99.90;;;;;;5031715;28;20049;-73
2022/09/20 06:23:00;;;;;;;5.18;2.75;;;25.00;99.90;;;;;;5049033;28;20068;-73
2022/09/20 06:25:39;;;;;;;5.65;2.40;;;25.10;99.90;;;;;;5048953;28;20037;-72
2022/09/20 06:28:20;;;;;;;3.83;2.28;;;25.20;99.90;;;;;;5031041;28;20056;-72
2022/09/20 06:30:52;;;;;;;5.00;2.25;;;25.20;99.90;;;;;;5048900;28;20049;-71
2022/09/20 06:33:25;;;;;;;5.72;2.25;;;25.40;99.90;;;;;;5014835;28;20090;-71
2022/09/20 06:41:25;;;;;;;4.13;2.10;;;25.40;99.90;;;;;;5048732;28;20797;-71
2022/09/20 06:42:09;;;;;;;6.85;2.20;;;25.70;99.90;;;;;;5031154;28;20188;-72
2022/09/20 06:44:42;;;;;;;3.28;1.58;;;25.80;99.90;;;;;;5030488;28;20396;-74
2022/09/20 06:47:11;;;;;;;6.10;2.00;;;25.90;99.90;;;;;;5049132;28;20126;-73
2022/09/20 06:49:41;;;;;;;4.75;2.08;;;26.00;99.90;;;;;;5030755;28;20051;-72
2022/09/20 06:52:14;;;;;;;3.35;1.85;;;26.10;99.90;;;;;;5048997;28;20127;-74
2022/09/20 06:54:54;;;;;;;3.28;1.90;;;26.20;99.90;;;;;;5014460;28;20057;-72
2022/09/20 06:57:36;;;;;;;5.20;2.08;;;26.20;99.90;;;;;;5048888;28;20053;-72
2022/09/20 07:00:05;;;;;;;2.88;2.03;;;25.70;99.80;;;;;;5030584;28;20277;-75
2022/09/20 07:02:33;;;;;;;4.15;1.50;;;25.60;99.90;;;;;;5030165;28;20454;-71
2022/09/20 07:05:00;;;;;;;6.93;1.77;;;25.60;99.90;;;;;;5030631;28;20041;-73
2022/09/20 07:07:28;;;;;;;9.63;1.90;;;25.70;99.90;;;;;;5047952;28;20051;-72
2022/09/20 07:09:57;;;;;;;4.22;1.80;;;26.00;99.90;;;;;;5048325;28;20052;-74
2022/09/20 07:12:24;;;;;;;4.32;2.00;;;26.30;99.90;;;;;;5048346;28;20111;-72
2022/09/20 07:14:52;;;;;;;6.72;2.30;;;26.50;99.50;;;;;;5014199;28;20052;-72
2022/09/20 07:17:21;;;;;;;3.28;2.00;;;26.60;99.30;;;;;;5014117;28;20247;-72
2022/09/20 07:19:48;;;;;;;2.45;1.77;;;26.90;98.40;;;;;;5029788;28;20037;-71
2022/09/20 07:22:16;;;;;;;2.47;1.85;;;27.00;97.70;;;;;;5013538;28;20052;-72
2022/09/20 07:24:43;;;;;;;3.13;1.30;;;27.10;96.90;;;;;;5029848;28;20056;-71
2022/09/20 07:27:11;;;;;;;5.72;1.70;;;27.20;96.50;;;;;;5030374;28;20036;-72
2022/09/20 07:29:40;;;;;;;2.05;1.13;;;27.20;96.30;;;;;;5030159;28;20448;-72
2022/09/20 07:32:07;;;;;;;4.15;1.50;;;27.30;96.30;;;;;;5047917;28;20048;-72
2022/09/20 07:34:34;;;;;;;3.22;1.27;;;27.30;96.30;;;;;;5029667;28;20056;-72
2022/09/20 07:37:02;;;;;;;3.92;1.48;;;27.10;96.20;;;;;;5013883;28;20140;-71
2022/09/20 07:39:30;;;;;;;4.00;1.40;;;26.90;96.10;;;;;;5029755;28;20517;-71
2022/09/20 07:41:57;;;;;;;4.47;1.63;;;26.60;95.60;;;;;;5047944;28;20041;-73
2022/09/20 07:44:26;;;;;;;3.97;1.45;;;26.40;95.90;;;;;;5029656;28;20077;-72
2022/09/20 07:46:59;;;;;;;3.30;1.63;;;26.20;96.10;;;;;;5029744;28;20147;-71
2022/09/20 07:49:30;;;;;;;4.53;1.92;;;26.20;96.30;;;;;;5030270;28;20055;-72
2022/09/20 07:51:58;;;;;;;4.68;1.92;;;26.40;96.00;;;;;;5029998;28;20041;-71
2022/09/20 07:54:28;;;;;;;2.95;1.50;;;26.50;95.30;;;;;;5047700;28;20394;-75
2022/09/20 07:56:56;;;;;;;5.28;1.45;;;26.60;95.20;;;;;;5029887;28;20049;-71
2022/09/20 07:59:24;;;;;;;2.42;1.30;;;26.70;95.10;;;;;;5013192;28;20495;-71
2022/09/20 08:01:52;;;;;;;3.72;1.98;;;26.80;94.80;;;;;;5030153;28;20140;-72
2022/09/20 08:04:19;;;;;;;2.80;1.38;;;26.90;94.90;;;;;;5047776;28;20037;-71
2022/09/20 08:06:47;;;;;;;2.17;1.30;;;27.10;95.00;;;;;;5029210;28;20072;-72
2022/09/20 08:09:14;;;;;;;2.60;1.27;;;27.00;94.90;;;;;;5012958;28;20075;-74
2022/09/20 08:11:42;;;;;;;4.30;1.85;;;27.20;94.90;;;;;;5047440;28;20076;-73
2022/09/20 08:14:15;;;;;;;3.95;1.45;;;27.10;94.50;;;;;;5047815;28;20414;-71
2022/09/20 08:16:47;;;;;;;4.20;1.35;;;27.10;94.40;;;;;;5013593;28;20052;-74
2022/09/20 08:19:18;;;;;;;2.53;1.33;;;27.10;93.80;;;;;;5013286;28;20133;-74
2022/09/20 08:21:46;;;;;;;3.42;1.27;;;27.00;93.90;;;;;;5047295;28;20060;-72
2022/09/20 08:24:15;;;;;;;4.63;1.38;;;27.10;94.30;;;;;;5047276;28;20069;-71
2022/09/20 08:26:43;;;;;;;2.83;1.35;;;27.20;94.40;;;;;;5012867;28;20049;-72
2022/09/20 08:29:11;;;;;;;3.03;1.65;;;27.20;94.30;;;;;;5013139;28;20126;-73
2022/09/20 08:31:41;;;;;;;4.22;1.05;;;27.10;94.50;;;;;;5050040;28;20041;-72
2022/09/20 08:34:11;;;;;;;2.42;1.17;;;27.20;94.30;;;;;;5051671;28;20063;-76
2022/09/20 08:36:40;;;;;;;3.08;1.30;;;27.20;93.20;;;;;;5051263;28;20187;-72
2022/09/20 08:39:08;;;;;;;4.45;1.58;;;27.30;93.30;;;;;;5051075;28;20080;-71
2022/09/20 08:42:05;;;;;;;2.47;1.67;;;27.40;93.10;;;;;;5016494;28;20158;-71
2022/09/20 08:44:42;;;;;;;2.78;1.38;;;27.50;93.10;;;;;;5033270;28;20116;-72
2022/09/20 08:47:34;;;;;;;3.28;1.52;;;27.70;93.40;;;;;;5016443;28;20063;-74
2022/09/20 08:50:06;;;;;;;2.97;1.25;;;27.80;93.40;;;;;;5050785;28;20135;-72
2022/09/20 08:52:38;;;;;;;3.20;1.33;;;27.80;93.30;;;;;;5000842;28;20052;-72
2022/09/20 08:55:16;;;;;;;2.10;1.30;;;27.60;92.70;;;;;;5016543;28;20073;-71
2022/09/20 08:57:48;;;;;;;3.42;1.80;;;27.50;92.80;;;;;;5032746;28;20344;-71
2022/09/20 09:00:19;;;;;;;2.35;1.20;;;27.30;92.60;;;;;;5050761;28;20071;-71
2022/09/20 09:02:52;;;;;;;4.38;1.40;;;27.30;92.40;;;;;;5016412;28;20052;-71
2022/09/20 09:05:51;;;;;;;4.70;1.92;;;27.40;92.90;;;;;;5033094;28;20128;-72
2022/09/20 09:08:24;;;;;;;1.92;1.27;;;27.40;92.70;;;;;;5038845;28;20145;-72
2022/09/20 09:10:53;;;;;;;4.93;2.22;;;27.40;92.20;;;;;;5032266;28;20102;-72
2022/09/20 09:13:27;;;;;;;3.78;1.27;;;27.50;92.60;;;;;;5050395;28;20045;-72
2022/09/20 09:16:08;;;;;;;2.30;1.10;;;27.50;92.70;;;;;;5032743;28;20048;-71
2022/09/20 09:18:39;;;;;;;1.80;1.05;;;27.60;92.30;;;;;;5032325;28;20057;-71
2022/09/20 09:21:09;;;;;;;3.90;1.52;;;27.50;91.80;;;;;;5032572;28;20059;-71
2022/09/20 09:24:01;;;;;;;2.55;1.40;;;27.50;91.50;;;;;;5016436;28;20574;-72
2022/09/20 09:26:36;;;;;;;2.97;1.10;;;27.40;91.30;;;;;;5032040;28;20165;-74
2022/09/20 09:29:13;;;;;;;1.90;1.05;;;27.30;90.70;;;;;;5032135;28;20052;-73
2022/09/20 09:31:40;;;;;;;4.18;1.77;;;27.30;91.10;;;;;;5050236;28;20068;-70
2022/09/20 09:34:29;;;;;;;2.65;1.30;;;27.20;90.70;;;;;;5050329;28;20037;-71
2022/09/20 09:36:57;;;;;;;2.38;1.00;;;27.30;90.50;;;;;;5050236;28;20056;-71
2022/09/20 09:39:36;;;;;;;1.58;1.10;;;27.30;90.70;;;;;;5049978;28;20123;-72
2022/09/20 09:42:22;;;;;;;3.15;1.08;;;27.40;90.70;;;;;;5015415;28;20122;-74
2022/09/20 09:44:50;;;;;;;3.22;1.27;;;27.40;90.30;;;;;;4998927;28;20468;-73
2022/09/20 09:47:28;;;;;;;2.40;1.27;;;27.60;90.10;;;;;;5015449;28;20467;-72
2022/09/20 09:49:58;;;;;;;2.75;1.05;;;27.80;88.40;;;;;;4999679;28;20072;-72
2022/09/20 09:52:32;;;;;;;1.75;1.17;;;27.90;89.00;;;;;;5049509;28;20049;-73
2022/09/20 09:55:03;;;;;;;3.08;1.40;;;27.60;90.20;;;;;;5031641;28;20436;-72
2022/09/20 09:57:54;;;;;;;2.40;1.48;;;27.60;90.00;;;;;;5050071;28;20413;-73
2022/09/20 10:00:26;;;;;;;1.58;1.10;;;27.30;90.00;;;;;;5031690;28;20113;-71
2022/09/20 10:03:14;;;;;;;3.40;1.25;;;27.20;90.20;;;;;;5015206;28;20424;-71
2022/09/20 10:06:01;;;;;;;3.47;1.30;;;27.10;90.00;;;;;;5031281;28;20174;-74
2022/09/20 10:08:47;;;;;;;;;;;27.10;89.80;;;;;;5049618;28;20860;-72
2022/09/20 10:11:14;;;;;;;2.47;1.08;;;27.10;89.50;;;;;;5031682;28;20337;-72
2022/09/20 10:14:11;;;;;;;5.95;1.67;;;27.20;90.40;;;;;;5049391;28;20103;-73
2022/09/20 10:17:14;;;;;;;2.60;1.25;;;27.20;90.10;;;;;;5012246;28;20084;-74
2022/09/20 10:19:55;;;;;;;1.92;1.10;;;27.40;89.90;;;;;;5031539;28;20155;-73
2022/09/20 10:22:47;;;;;;;1.88;1.23;;;27.50;88.90;;;;;;5031423;28;20162;-72
2022/09/20 10:25:35;;;;;;;2.67;0.90;;;27.80;88.80;;;;;;5016310;28;20371;-74
2022/09/20 10:28:36;;;;;;;2.58;1.10;;;27.90;86.90;;;;;;5031186;28;20041;-72
2022/09/20 10:31:18;;;;;;;1.67;0.88;;;27.90;85.80;;;;;;5014728;28;20140;-71
2022/09/20 10:34:39;;;;;;;1.95;1.10;;;27.90;86.30;;;;;;5031312;28;20045;-72
2022/09/20 10:37:35;;;;;;;2.38;1.10;;;27.90;86.30;;;;;;5048827;28;20408;-71
2022/09/20 10:40:19;;;;;;;3.78;0.93;;;27.80;85.60;;;;;;5030612;28;20418;-71
2022/09/20 10:43:15;;;;;;;2.55;1.00;;;27.80;86.80;;;;;;5014349;28;20044;-72
2022/09/20 10:46:07;;;;;;;2.30;1.08;;;27.70;87.90;;;;;;5030737;28;20052;-71
2022/09/20 10:49:13;;;;;;;2.03;1.10;;;27.60;89.00;;;;;;5030591;28;20060;-71
2022/09/20 10:52:09;;;;;;;2.75;1.02;;;27.50;88.70;;;;;;5030892;28;20495;-71
2022/09/20 10:54:39;;;;;;;1.40;1.00;;;27.60;88.50;;;;;;5047143;28;20136;-74
2022/09/20 10:57:27;;;;;;;3.63;1.30;;;27.60;87.80;;;;;;5048689;28;20052;-73
2022/09/20 11:00:13;;;;;;;1.85;1.20;;;27.40;88.30;;;;;;5010283;28;20475;-72
2022/09/20 11:02:57;;;;;;;2.13;1.30;;;27.50;88.20;;;;;;5013721;28;20044;-71
2022/09/20 11:05:36;;;;;;;2.83;1.33;;;27.40;87.90;;;;;;5030600;28;20041;-72
2022/09/20 11:08:10;;;;;;;2.55;1.10;;;27.30;87.10;;;;;;4997683;28;20114;-72
2022/09/20 11:11:06;;;;;;;3.17;1.33;;;27.20;88.00;;;;;;5030098;28;20164;-73
2022/09/20 11:14:09;;;;;;;1.90;1.13;;;27.10;87.30;;;;;;5048159;28;20044;-72
2022/09/20 11:16:49;;;;;;;1.83;1.00;;;27.30;87.70;;;;;;4986467;28;20516;-71
2022/09/20 11:19:34;;;;;;;2.13;0.98;;;27.40;86.10;;;;;;5024647;28;20057;-71
2022/09/20 11:22:19;;;;;;;3.08;1.00;;;27.40;84.70;;;;;;5014485;28;20037;-74
2022/09/20 11:25:11;;;;;;;1.65;0.90;;;27.30;84.00;;;;;;5047969;28;20077;-72
2022/09/20 11:27:57;;;;;;;4.43;1.30;;;27.40;84.20;;;;;;5030087;28;20403;-72
2022/09/20 11:30:27;;;;;;;1.50;0.82;;;27.40;82.90;;;;;;5030213;28;20048;-71
2022/09/20 11:33:20;;;;;;;1.67;1.00;;;27.40;81.30;;;;;;5047883;28;20568;-71
2022/09/20 11:36:10;;;;;;;2.38;1.48;;;27.30;79.50;;;;;;5047610;28;20450;-71
2022/09/20 11:38:52;;;;;;;3.17;0.90;;;27.40;77.60;;;;;;5036757;28;20376;-71
2022/09/20 11:41:27;;;;;;;3.28;1.17;;;27.50;78.10;;;;;;5013569;28;20376;-72
2022/09/20 11:44:03;;;;;;;;;;;27.30;77.10;;;;;;5048071;28;20037;-71
2022/09/20 11:46:37;;;;;;;3.10;1.10;;;27.30;79.10;;;;;;5013172;28;19928;-75
2022/09/20 11:49:29;;;;;;;1.13;0.80;;;27.20;81.20;;;;;;5030045;28;20057;-71
2022/09/20 11:52:19;;;;;;;2.10;1.45;;;27.00;83.50;;;;;;5029835;28;20037;-71
2022/09/20 11:55:02;;;;;;;2.00;1.27;;;27.10;83.80;;;;;;4992032;28;20107;-72
2022/09/20 11:57:30;;;;;;;1.67;1.05;;;27.00;85.00;;;;;;5013621;28;20139;-71
2022/09/20 12:00:04;;;;;;;3.13;1.13;;;26.90;85.60;;;;;;5047274;28;20041;-73
2022/09/20 12:02:51;;;;;;;2.80;1.00;;;26.90;85.70;;;;;;5029592;28;20052;-71
2022/09/20 12:05:36;;;;;;;1.48;0.85;;;27.00;86.90;;;;;;5051118;28;20402;-72
2022/09/20 12:08:48;;;;;;;3.43;1.37;;;27.00;88.40;;;;;;5036502;28;20140;-71
2022/09/20 12:11:25;;;;;;;2.83;1.10;;;26.90;88.10;;;;;;5053697;28;20041;-72
2022/09/20 12:14:00;;;;;;;3.03;1.40;;;26.70;87.60;;;;;;5053926;28;20135;-72
2022/09/20 12:16:45;;;;;;;2.33;1.10;;;26.70;88.70;;;;;;5036321;28;20060;-72
2022/09/20 12:19:14;;;;;;;2.13;1.23;;;26.70;89.70;;;;;;5036335;28;20132;-71
2022/09/20 12:21:59;;;;;;;1.73;1.25;;;26.70;88.80;;;;;;5019874;28;20171;-73
2022/09/20 12:24:33;;;;;;;3.13;1.17;;;26.50;88.30;;;;;;5054629;28;20506;-71
2022/09/20 12:27:40;;;;;;;2.38;1.00;;;26.40;88.70;;;;;;5036243;28;20057;-71
2022/09/20 12:30:34;;;;;;;2.83;1.05;;;26.30;88.90;;;;;;5053716;28;20139;-72
2022/09/20 12:33:02;;;;;;;2.85;1.20;;;26.30;89.90;;;;;;5033539;28;20134;-72
2022/09/20 12:35:58;;;;;;;2.60;1.20;;;26.30;88.80;;;;;;5036036;28;20061;-71
2022/09/20 12:38:30;;;;;;;2.72;1.05;;;26.30;90.10;;;;;;5035403;28;20414;-75
2022/09/20 12:40:57;;;;;;;2.40;1.00;;;26.20;89.60;;;;;;5035699;28;20049;-73
2022/09/20 12:43:28;;;;;;;2.40;0.77;;;26.30;90.10;;;;;;5019842;28;20041;-71
2022/09/20 12:45:57;;;;;;;2.38;1.30;;;26.20;90.10;;;;;;5019496;28;20572;-73
2022/09/20 12:48:34;;;;;;;5.50;1.60;;;26.20;90.10;;;;;;5035401;28;20045;-72
2022/09/20 12:54:06;;;;;;;1.70;0.98;;;26.20;90.80;;;;;;5036310;28;20048;-73
2022/09/20 12:56:39;;;;;;;3.45;1.35;;;26.20;90.20;;;;;;5036116;28;20061;-71
2022/09/20 12:59:27;;;;;;;1.50;0.90;;;26.20;90.00;;;;;;5019718;28;20060;-73
2022/09/20 13:01:55;;;;;;;2.38;0.80;;;26.20;90.50;;;;;;5020177;28;20455;-71
2022/09/20 13:04:40;;;;;;;2.13;1.00;;;26.20;90.50;;;;;;5054460;28;20479;-70
2022/09/20 13:07:35;;;;;;;2.03;0.90;;;26.00;88.80;;;;;;5036267;28;20052;-73
2022/09/20 13:10:19;;;;;;;2.40;1.05;;;25.90;89.00;;;;;;5053859;28;20056;-71
2022/09/20 13:12:48;;;;;;;2.17;1.15;;;25.70;89.10;;;;;;5036048;28;20519;-71
2022/09/20 13:15:20;;;;;;;2.22;1.13;;;25.60;89.70;;;;;;5054126;28;20045;-71
2022/09/20 13:17:51;;;;;;;2.28;1.02;;;25.50;89.50;;;;;;5015912;28;20065;-73
2022/09/20 13:20:23;;;;;;;2.08;1.08;;;25.30;90.50;;;;;;5033505;28;20052;-72
2022/09/20 13:22:52;;;;;;;1.88;1.02;;;25.20;90.80;;;;;;5050926;28;20041;-73
2022/09/20 13:25:23;;;;;;;1.67;1.02;;;25.20;90.60;;;;;;5032776;28;20404;-71
2022/09/20 13:28:19;;;;;;;2.35;0.98;;;25.20;90.80;;;;;;5033021;28;20041;-72
2022/09/20 13:30:47;;;;;;;2.58;1.00;;;25.10;90.70;;;;;;5015992;28;20068;-72
2022/09/20 13:33:22;;;;;;;2.90;1.10;;;25.00;90.80;;;;;;5032588;28;20041;-71
2022/09/20 13:35:56;;;;;;;2.65;0.88;;;25.00;90.50;;;;;;5033074;28;20052;-74
2022/09/20 13:38:29;;;;;;;1.73;0.80;;;24.90;90.60;;;;;;5000493;28;20174;-71
2022/09/20 13:41:11;;;;;;;2.22;1.02;;;25.00;90.60;;;;;;5032953;28;20041;-71
2022/09/20 13:43:42;;;;;;;2.40;1.15;;;24.80;90.80;;;;;;5032433;28;20059;-72
2022/09/20 13:46:12;;;;;;;3.53;1.13;;;24.80;90.90;;;;;;5050261;28;20063;-71
2022/09/20 13:48:40;;;;;;;1.38;0.80;;;24.90;90.50;;;;;;5032196;28;20491;-72
2022/09/20 13:51:25;;;;;;;3.28;1.02;;;24.80;90.50;;;;;;5032050;28;20064;-74
2022/09/20 13:54:13;;;;;;;2.70;1.40;;;24.80;91.10;;;;;;5031853;28;20172;-72
2022/09/20 13:56:41;;;;;;;1.48;0.80;;;24.80;91.10;;;;;;5032269;28;20329;-71
2022/09/20 13:59:16;;;;;;;1.65;0.90;;;24.90;90.80;;;;;;5015686;28;20128;-71
2022/09/20 14:01:53;;;;;;;1.35;1.20;;;24.90;91.10;;;;;;5049985;28;20047;-71
2022/09/20 14:04:26;;;;;;;4.72;1.30;;;24.80;91.20;;;;;;5031968;28;20057;-74
2022/09/20 14:06:56;;;;;;;4.32;1.30;;;24.80;91.10;;;;;;5032450;28;20186;-71
2022/09/20 14:09:33;;;;;;;4.55;1.42;;;24.80;91.00;;;;;;5015347;28;20498;-72